Time;durP1;ratioP1;P1;durP2;ratioP2;P2;SDS_P1;SDS_P2;PMS_P1;PMS_P2;Temp;Humidity;BMP_temperature;BMP_pressure;BME280_temperature;BME280_humidity;BME280_pressure;Samples;Min_cycle;Max_cycle;Signal;HPM_P1;HPM_P2
2023/05/28 10:31:04;;;;;;;2.30;0.20;;;;;;;19.64;31.88;100566.69;103633;1304;544905;-72
2023/05/28 10:33:37;;;;;;;0.40;0.10;;;;;;;19.69;31.73;100565.09;105573;1280;137329;-71
2023/05/28 10:36:10;;;;;;;3.60;0.20;;;;;;;19.75;31.64;100568.67;105303;1292;138092;-70
2023/05/28 10:39:03;;;;;;;2.40;0.20;;;;;;;19.79;31.48;100572.10;105477;1286;22559;-71
2023/05/28 10:41:33;;;;;;;0.60;0.20;;;;;;;19.76;31.82;100554.58;105267;1286;138745;-72
2023/05/28 10:44:07;;;;;;;3.50;0.40;;;;;;;19.83;32.00;100546.68;105373;1286;200676;-71
2023/05/28 10:46:36;;;;;;;0.80;0.40;;;;;;;19.98;31.71;100559.27;105594;1268;22547;-70
2023/05/28 10:49:11;;;;;;;0.80;0.20;;;;;;;20.02;31.51;100563.57;105522;1289;137987;-70
2023/05/28 10:51:44;;;;;;;0.70;0.20;;;;;;;20.02;31.58;100555.79;105562;1290;22592;-71
2023/05/28 10:54:15;;;;;;;1.80;0.40;;;;;;;20.00;31.32;100558.77;105673;1288;142020;-73
2023/05/28 10:57:07;;;;;;;4.40;0.20;;;;;;;19.94;30.24;100556.40;105578;1290;139846;-70
2023/05/28 11:00:01;;;;;;;1.10;0.20;;;;;;;19.91;31.03;100555.97;109526;1284;22906;-70
2023/05/28 11:02:33;;;;;;;1.10;0.30;;;;;;;19.95;30.85;100561.62;109844;1281;138262;-72
2023/05/28 11:05:03;;;;;;;4.30;0.30;;;;;;;19.99;30.01;100550.70;109813;1270;137364;-70
2023/05/28 11:07:39;;;;;;;0.60;0.20;;;;;;;20.05;30.60;100543.75;109905;1274;22376;-71
2023/05/28 11:10:08;;;;;;;0.40;0.10;;;;;;;20.14;30.70;100545.02;109808;1281;137390;-69
2023/05/28 11:12:37;;;;;;;0.60;0.10;;;;;;;20.19;30.20;100554.03;109862;1281;139288;-69
2023/05/28 11:15:06;;;;;;;1.10;0.40;;;;;;;20.22;29.12;100557.67;109915;1281;22185;-69
2023/05/28 11:17:42;;;;;;;1.40;0.20;;;;;;;20.25;28.97;100556.41;109815;1280;139512;-70
2023/05/28 11:20:25;;;;;;;1.60;0.30;;;;;;;20.27;27.65;100562.77;109867;1274;137833;-71
2023/05/28 11:22:54;;;;;;;2.00;0.20;;;;;;;20.24;27.70;100562.88;109963;1280;22209;-71
2023/05/28 11:25:25;;;;;;;1.40;0.20;;;;;;;20.21;27.98;100554.34;109793;1281;136165;-70
2023/05/28 11:27:53;;;;;;;1.40;0.10;;;;;;;20.21;27.41;100555.32;109951;1282;22891;-70
2023/05/28 11:30:21;;;;;;;0.70;0.10;;;;;;;20.23;27.34;100558.38;109853;1275;137104;-68
2023/05/28 11:32:48;;;;;;;1.30;0.20;;;;;;;20.22;28.01;100553.06;109782;1275;137403;-70
2023/05/28 11:35:17;;;;;;;0.40;0.20;;;;;;;20.21;28.76;100553.86;109908;1276;22925;-70
2023/05/28 11:37:45;;;;;;;1.50;0.20;;;;;;;20.25;29.14;100554.45;109926;1267;137332;-70
2023/05/28 11:40:14;;;;;;;0.50;0.20;;;;;;;20.25;28.49;100561.39;109898;1280;138565;-70
2023/05/28 11:42:43;;;;;;;1.50;0.20;;;;;;;20.22;28.03;100557.59;110010;1281;22850;-70
2023/05/28 11:45:12;;;;;;;0.60;0.10;;;;;;;20.21;28.28;100555.86;109854;1274;137348;-70
2023/05/28 11:47:42;;;;;;;0.80;0.20;;;;;;;20.25;28.14;100548.27;109906;1275;22097;-70
2023/05/28 11:50:14;;;;;;;0.60;0.10;;;;;;;20.29;26.44;100558.14;109853;1276;138586;-68
2023/05/28 11:52:43;;;;;;;0.50;0.20;;;;;;;20.27;25.90;100554.64;109779;1262;138079;-70
2023/05/28 11:55:11;;;;;;;0.20;0.10;;;;;;;20.23;26.86;100553.48;109900;1264;22237;-71
2023/05/28 11:57:39;;;;;;;1.70;0.10;;;;;;;20.20;28.31;100562.77;109796;1282;138860;-69
2023/05/28 12:00:11;;;;;;;2.10;0.20;;;;;;;20.13;28.81;100558.44;109814;1265;138586;-68
2023/05/28 12:02:48;;;;;;;4.70;0.20;;;;;;;20.04;29.06;100561.05;109906;1261;22310;-69
2023/05/28 12:05:17;;;;;;;1.80;0.30;;;;;;;19.99;29.41;100558.44;109840;1264;137288;-70
2023/05/28 12:07:48;;;;;;;0.30;0.20;;;;;;;20.00;29.53;100555.92;109896;1274;22336;-68
2023/05/28 12:10:19;;;;;;;0.60;0.40;;;;;;;20.05;29.30;100556.14;109815;1282;137435;-69
2023/05/28 12:12:56;;;;;;;2.30;0.30;;;;;;;20.08;28.84;100557.91;109813;1278;138230;-71
2023/05/28 12:15:26;;;;;;;2.10;0.20;;;;;;;20.08;28.24;100557.11;109949;1282;22230;-72
2023/05/28 12:18:00;;;;;;;1.20;0.20;;;;;;;20.06;28.33;100558.87;109797;1280;139072;-69
2023/05/28 12:20:30;;;;;;;2.90;0.30;;;;;;;20.02;28.49;100551.61;109772;1282;137848;-72
2023/05/28 12:23:01;;;;;;;0.90;0.30;;;;;;;19.99;28.98;100549.55;109890;1280;22220;-71
2023/05/28 12:25:28;;;;;;;3.30;0.40;;;;;;;19.92;29.98;100550.20;109802;1275;138815;-70
2023/05/28 12:27:56;;;;;;;0.60;0.20;;;;;;;19.89;30.37;100548.08;109905;1282;22115;-71
2023/05/28 12:30:23;;;;;;;4.50;0.90;;;;;;;19.87;30.43;100549.40;109812;1278;137247;-69
2023/05/28 12:32:51;;;;;;;0.50;0.20;;;;;;;19.88;30.59;100551.75;109796;1280;138376;-69
2023/05/28 12:35:18;;;;;;;0.20;0.10;;;;;;;19.91;30.73;100557.65;109842;1276;22126;-71
2023/05/28 12:37:45;;;;;;;1.10;0.40;;;;;;;19.95;30.82;100544.45;109751;1277;138282;-70
2023/05/28 12:40:13;;;;;;;0.30;0.10;;;;;;;19.99;30.82;100542.30;109874;1273;137891;-71
2023/05/28 12:42:40;;;;;;;0.80;0.10;;;;;;;20.04;30.48;100541.85;109973;1279;22336;-72
2023/05/28 12:45:08;;;;;;;1.10;0.20;;;;;;;20.08;30.21;100546.89;109823;1261;137498;-71
2023/05/28 12:47:35;;;;;;;0.80;0.10;;;;;;;20.07;29.31;100550.39;110002;1276;22308;-71
2023/05/28 12:50:03;;;;;;;0.20;0.20;;;;;;;20.05;28.88;100550.35;109931;1272;138442;-71
2023/05/28 12:52:33;;;;;;;2.20;0.30;;;;;;;20.03;29.09;100543.50;109879;1273;137791;-72
2023/05/28 12:55:01;;;;;;;3.10;0.10;;;;;;;20.01;29.19;100538.66;109947;1263;22918;-72
2023/05/28 12:57:40;;;;;;;4.20;0.10;;;;;;;20.01;29.38;100535.47;109995;1271;137762;-73
2023/05/28 13:00:11;;;;;;;0.50;0.10;;;;;;;19.99;29.68;100539.10;110105;1272;137948;-74
2023/05/28 13:02:39;;;;;;;3.30;0.20;;;;;;;19.95;30.07;100540.99;110049;1278;22148;-71
2023/05/28 13:05:07;;;;;;;1.20;0.10;;;;;;;19.89;30.26;100537.81;110144;1272;138042;-72
2023/05/28 13:07:35;;;;;;;3.50;0.30;;;;;;;19.86;30.42;100534.42;110278;1269;22334;-72
2023/05/28 13:10:04;;;;;;;0.20;0.20;;;;;;;19.87;31.66;100526.73;109896;1274;137427;-73
2023/05/28 13:12:33;;;;;;;0.60;0.10;;;;;;;19.93;33.61;100527.81;109874;1258;137856;-72
2023/05/28 13:15:00;;;;;;;3.20;0.30;;;;;;;19.98;33.78;100529.30;110081;1272;23088;-72
2023/05/28 13:17:28;;;;;;;3.10;0.80;;;;;;;20.01;31.51;100526.30;109839;1272;137701;-72
2023/05/28 13:19:55;;;;;;;0.60;0.10;;;;;;;19.99;31.24;100531.22;110020;1260;22171;-72
2023/05/28 13:22:23;;;;;;;5.00;0.20;;;;;;;20.01;31.28;100529.80;109931;1271;137453;-72
2023/05/28 13:24:50;;;;;;;0.50;0.10;;;;;;;20.07;31.16;100527.33;110095;1271;139607;-73
2023/05/28 13:27:17;;;;;;;3.80;0.10;;;;;;;20.10;31.11;100525.02;110161;1271;22229;-73
2023/05/28 13:29:45;;;;;;;0.90;0.40;;;;;;;20.12;31.13;100532.00;109951;1277;137475;-72
2023/05/28 13:32:12;;;;;;;0.60;0.10;;;;;;;20.11;30.69;100530.59;110149;1272;138843;-73
2023/05/28 13:34:40;;;;;;;3.70;0.10;;;;;;;20.08;30.72;100527.23;109916;1272;22842;-72
2023/05/28 13:37:07;;;;;;;1.90;0.50;;;;;;;20.05;31.04;100522.22;109959;1273;137741;-73
2023/05/28 13:39:34;;;;;;;1.00;0.30;;;;;;;20.05;31.01;100517.45;110177;1276;22473;-72
2023/05/28 13:42:03;;;;;;;2.60;0.10;;;;;;;20.05;30.78;100523.56;109899;1274;140334;-75
2023/05/28 13:44:30;;;;;;;1.40;0.30;;;;;;;20.03;30.60;100521.27;109962;1276;138003;-76
2023/05/28 13:46:58;;;;;;;1.40;0.30;;;;;;;20.05;30.91;100513.60;110241;1271;22236;-72
2023/05/28 13:49:26;;;;;;;0.70;0.30;;;;;;;20.10;30.69;100512.33;110108;1260;137481;-75
2023/05/28 13:51:53;;;;;;;1.00;0.20;;;;;;;20.13;30.76;100516.11;110344;1270;22414;-71
2023/05/28 13:54:21;;;;;;;4.20;0.20;;;;;;;20.16;30.73;100511.66;109994;1260;137087;-72
2023/05/28 13:56:48;;;;;;;4.30;0.10;;;;;;;20.17;30.98;100507.14;109966;1270;138081;-75
2023/05/28 13:59:16;;;;;;;0.70;0.20;;;;;;;20.18;31.12;100512.20;110237;1273;22283;-71
2023/05/28 14:01:43;;;;;;;1.70;0.20;;;;;;;20.17;31.06;100503.84;110019;1277;138745;-74
2023/05/28 14:04:10;;;;;;;1.50;0.20;;;;;;;20.15;31.06;100509.32;110187;1277;139096;-70
2023/05/28 14:06:38;;;;;;;1.20;0.20;;;;;;;20.03;31.51;100486.25;110151;1275;22693;-73
2023/05/28 14:09:05;;;;;;;0.70;0.20;;;;;;;20.05;31.42;100488.88;110035;1270;137942;-72
2023/05/28 14:11:32;;;;;;;1.50;0.20;;;;;;;20.15;31.30;100498.23;110173;1272;22146;-71
2023/05/28 14:14:20;;;;;;;0.30;0.10;;;;;;;20.16;31.01;100495.83;110187;1256;138742;-74
2023/05/28 14:16:47;;;;;;;1.70;0.40;;;;;;;20.19;31.06;100489.68;110104;1270;137991;-72
2023/05/28 14:19:15;;;;;;;0.20;0.20;;;;;;;20.21;31.20;100485.65;110274;1272;22388;-70
2023/05/28 14:21:43;;;;;;;0.90;0.20;;;;;;;20.23;31.05;100481.83;110200;1269;137912;-71
2023/05/28 14:24:11;;;;;;;1.90;0.20;;;;;;;20.22;31.32;100481.89;110101;1272;139034;-72
2023/05/28 14:26:38;;;;;;;1.30;0.30;;;;;;;20.25;31.34;100476.45;110222;1270;22256;-74
2023/05/28 14:29:05;;;;;;;0.20;0.10;;;;;;;20.28;31.27;100483.53;110121;1272;138547;-74
2023/05/28 14:31:33;;;;;;;1.20;0.10;;;;;;;20.28;30.96;100486.14;110076;1276;22357;-75
2023/05/28 14:34:00;;;;;;;0.40;0.20;;;;;;;20.25;30.75;100481.27;109968;1270;137665;-72
2023/05/28 14:36:27;;;;;;;2.70;0.20;;;;;;;20.21;31.02;100477.33;109998;1270;163553;-71
2023/05/28 14:38:55;;;;;;;0.70;0.10;;;;;;;20.20;31.13;100479.95;110242;1276;23109;-73
2023/05/28 14:41:22;;;;;;;2.40;0.70;;;;;;;20.19;31.07;100479.72;109808;1275;138500;-73
2023/05/28 14:43:50;;;;;;;1.10;0.20;;;;;;;20.21;30.78;100476.02;109986;1263;22340;-73
2023/05/28 14:46:17;;;;;;;3.90;0.20;;;;;;;20.23;30.84;100473.77;110148;1272;137680;-71
2023/05/28 14:48:44;;;;;;;2.40;0.10;;;;;;;20.27;30.87;100474.15;110090;1278;138056;-72
2023/05/28 14:51:12;;;;;;;1.80;0.50;;;;;;;20.30;30.87;100475.27;110088;1274;22119;-74
2023/05/28 14:53:39;;;;;;;2.30;0.20;;;;;;;20.33;30.60;100476.61;109939;1275;137869;-72
2023/05/28 14:56:07;;;;;;;1.50;0.10;;;;;;;20.34;30.54;100476.41;109870;1277;138048;-71
2023/05/28 14:58:35;;;;;;;1.60;0.10;;;;;;;20.33;30.74;100471.85;110160;1260;22326;-70
2023/05/28 15:01:02;;;;;;;0.60;0.10;;;;;;;20.33;30.58;100475.81;109930;1258;137748;-72
2023/05/28 15:03:31;;;;;;;2.00;0.10;;;;;;;20.32;30.42;100483.04;110153;1277;22232;-71
2023/05/28 15:05:59;;;;;;;6.10;0.60;;;;;;;20.29;30.61;100478.09;110172;1271;137820;-72
2023/05/28 15:08:26;;;;;;;3.70;0.10;;;;;;;20.28;30.84;100473.51;110094;1272;139599;-73
2023/05/28 15:10:54;;;;;;;0.70;0.10;;;;;;;20.24;30.78;100477.67;110158;1276;23159;-74
2023/05/28 15:13:21;;;;;;;1.30;0.20;;;;;;;20.20;31.09;100479.48;110152;1269;137961;-74
2023/05/28 15:15:48;;;;;;;3.40;0.10;;;;;;;20.16;31.06;100476.96;110263;1272;22222;-72
2023/05/28 15:18:15;;;;;;;1.20;0.10;;;;;;;20.13;31.45;100471.13;110155;1276;137582;-73
2023/05/28 15:20:43;;;;;;;0.90;0.10;;;;;;;20.10;31.41;100470.88;110197;1270;137845;-75
2023/05/28 15:23:10;;;;;;;1.00;0.10;;;;;;;20.08;31.39;100464.85;110214;1271;22113;-73
2023/05/28 15:25:38;;;;;;;0.10;0.10;;;;;;;20.09;31.62;100467.62;109989;1273;138645;-74
2023/05/28 15:28:07;;;;;;;1.20;0.10;;;;;;;20.10;31.36;100468.34;110161;1260;138299;-75
2023/05/28 15:30:35;;;;;;;0.50;0.10;;;;;;;20.12;30.99;100470.86;110137;1277;22184;-73
2023/05/28 15:33:03;;;;;;;1.80;0.10;;;;;;;20.08;30.90;100469.56;110144;1270;138765;-72
2023/05/28 15:35:31;;;;;;;1.80;0.10;;;;;;;20.05;30.99;100467.02;110203;1259;22221;-73
2023/05/28 15:37:58;;;;;;;2.50;0.30;;;;;;;20.03;31.06;100471.98;110031;1272;138800;-74
2023/05/28 15:40:27;;;;;;;4.20;0.10;;;;;;;20.01;31.10;100476.33;110062;1272;138957;-74
2023/05/28 15:42:58;;;;;;;0.80;0.10;;;;;;;19.99;31.36;100481.91;110207;1270;22295;-74
2023/05/28 15:45:26;;;;;;;2.90;0.10;;;;;;;19.98;31.50;100481.46;110033;1275;137806;-73
2023/05/28 15:47:53;;;;;;;2.60;0.20;;;;;;;19.98;31.29;100483.25;109986;1272;22218;-74
2023/05/28 15:50:20;;;;;;;3.20;0.10;;;;;;;19.95;31.11;100483.05;110008;1278;138774;-73
2023/05/28 15:52:49;;;;;;;4.90;0.10;;;;;;;19.91;30.87;100485.86;110086;1278;138198;-76
2023/05/28 15:55:16;;;;;;;0.60;0.10;;;;;;;19.88;30.71;100491.59;110067;1272;22197;-74
2023/05/28 15:57:44;;;;;;;3.30;0.20;;;;;;;19.85;30.80;100495.06;110073;1278;139783;-72
2023/05/28 16:00:12;;;;;;;0.40;0.20;;;;;;;19.82;30.82;100495.11;109952;1274;139175;-71
2023/05/28 16:02:42;;;;;;;0.80;0.10;;;;;;;19.79;30.65;100498.64;110077;1271;22415;-73
2023/05/28 16:05:10;;;;;;;0.90;0.10;;;;;;;19.75;30.63;100495.08;110077;1277;137583;-75
2023/05/28 16:07:38;;;;;;;13.40;0.20;;;;;;;19.73;30.64;100499.53;110017;1270;22225;-73
2023/05/28 16:10:06;;;;;;;1.50;0.10;;;;;;;19.71;30.46;100498.11;110178;1276;137811;-73
2023/05/28 16:12:35;;;;;;;0.40;0.00;;;;;;;19.67;30.70;100498.95;110201;1270;138579;-73
2023/05/28 16:15:07;;;;;;;0.70;0.10;;;;;;;19.62;30.69;100502.39;110335;1271;22190;-73
2023/05/28 16:17:38;;;;;;;2.40;0.10;;;;;;;19.55;30.76;100506.27;110244;1277;137556;-72
2023/05/28 16:20:09;;;;;;;1.60;0.10;;;;;;;19.51;30.70;100513.45;110178;1271;139230;-73
2023/05/28 16:22:38;;;;;;;3.00;0.20;;;;;;;19.47;30.73;100517.17;110321;1261;22980;-76
2023/05/28 16:25:06;;;;;;;0.50;0.10;;;;;;;19.43;30.63;100517.29;110022;1270;136289;-71
2023/05/28 16:27:35;;;;;;;3.40;0.10;;;;;;;19.40;30.68;100522.34;110346;1270;22289;-74
2023/05/28 16:30:04;;;;;;;3.70;0.10;;;;;;;19.32;30.88;100514.71;110099;1278;139355;-74
2023/05/28 16:32:32;;;;;;;0.30;0.10;;;;;;;19.38;30.71;100530.67;110064;1273;138078;-73
2023/05/28 16:35:00;;;;;;;0.20;0.10;;;;;;;19.37;30.77;100534.11;110261;1270;22339;-75
2023/05/28 16:37:29;;;;;;;0.60;0.10;;;;;;;19.34;30.62;100531.96;110080;1272;138876;-75
2023/05/28 16:39:56;;;;;;;0.10;0.10;;;;;;;19.32;30.69;100537.59;110039;1274;22348;-74
2023/05/28 16:42:24;;;;;;;1.60;0.10;;;;;;;19.29;31.01;100538.02;110015;1271;137512;-74
2023/05/28 16:44:51;;;;;;;2.30;0.10;;;;;;;19.23;31.10;100546.55;109971;1273;138327;-74
2023/05/28 16:47:19;;;;;;;1.70;0.20;;;;;;;19.19;31.12;100546.80;110117;1271;22096;-75
2023/05/28 16:49:46;;;;;;;0.70;0.10;;;;;;;19.16;31.08;100552.89;110042;1277;137671;-74
2023/05/28 16:52:14;;;;;;;1.10;0.10;;;;;;;19.12;31.18;100551.80;110077;1276;137794;-74
2023/05/28 16:54:45;;;;;;;2.70;0.30;;;;;;;19.09;31.43;100549.79;110113;1257;22138;-73
2023/05/28 16:57:13;;;;;;;4.00;0.20;;;;;;;19.08;31.49;100552.19;110140;1275;138581;-74
2023/05/28 16:59:40;;;;;;;1.70;0.10;;;;;;;19.04;31.22;100552.52;110196;1276;22179;-74
2023/05/28 17:02:09;;;;;;;3.10;0.10;;;;;;;19.02;31.35;100550.02;110163;1271;138034;-75
2023/05/28 17:04:38;;;;;;;1.90;0.10;;;;;;;19.00;31.38;100551.44;109992;1271;139480;-73
2023/05/28 17:07:06;;;;;;;1.80;0.10;;;;;;;18.96;31.08;100550.16;110232;1272;22353;-73
2023/05/28 17:09:33;;;;;;;1.00;0.10;;;;;;;18.90;31.20;100544.52;110094;1271;137618;-75
2023/05/28 17:12:01;;;;;;;1.50;0.20;;;;;;;18.90;31.45;100548.15;110302;1270;22300;-74
2023/05/28 17:14:29;;;;;;;0.50;0.20;;;;;;;18.86;31.57;100546.41;110203;1255;23000;-75
2023/05/28 17:16:58;;;;;;;1.00;0.20;;;;;;;18.83;31.75;100544.83;110034;1277;137544;-74
2023/05/28 17:19:29;;;;;;;1.20;0.20;;;;;;;18.78;32.04;100543.69;110217;1272;22780;-74
2023/05/28 17:21:57;;;;;;;0.70;0.20;;;;;;;18.72;32.23;100546.08;110148;1270;138163;-73
2023/05/28 17:24:24;;;;;;;1.80;0.20;;;;;;;18.67;32.60;100549.26;110052;1263;139627;-73
2023/05/28 17:26:51;;;;;;;4.60;0.10;;;;;;;18.55;32.74;100543.23;110190;1271;22207;-72
2023/05/28 17:29:18;;;;;;;0.30;0.10;;;;;;;18.43;33.28;100534.42;110130;1257;137815;-74
2023/05/28 17:31:46;;;;;;;3.30;0.30;;;;;;;18.50;33.43;100558.61;110086;1275;22094;-74
2023/05/28 17:34:15;;;;;;;2.30;0.20;;;;;;;18.36;33.49;100550.11;110124;1270;137577;-75
2023/05/28 17:36:43;;;;;;;5.20;0.10;;;;;;;18.39;33.71;100566.73;110065;1271;139557;-73
2023/05/28 17:39:10;;;;;;;3.70;0.20;;;;;;;18.35;34.01;100564.73;110176;1275;22103;-71
2023/05/28 17:41:38;;;;;;;2.40;0.40;;;;;;;18.29;34.19;100569.45;109889;1278;138441;-72
2023/05/28 17:44:06;;;;;;;2.20;0.20;;;;;;;18.23;34.52;100566.02;109801;1278;138520;-70
2023/05/28 17:46:38;;;;;;;2.00;0.30;;;;;;;18.17;34.57;100568.86;110134;1278;22251;-70
2023/05/28 17:49:05;;;;;;;2.80;0.20;;;;;;;18.13;34.96;100568.14;109978;1257;137949;-73
2023/05/28 17:51:33;;;;;;;2.10;0.20;;;;;;;18.07;35.06;100566.73;110060;1276;23147;-74
2023/05/28 17:54:00;;;;;;;1.50;0.50;;;;;;;18.05;35.23;100564.46;109994;1280;138862;-71
2023/05/28 17:56:27;;;;;;;2.80;0.30;;;;;;;18.03;35.56;100562.69;110019;1270;139806;-73
2023/05/28 17:58:55;;;;;;;1.20;0.40;;;;;;;18.02;35.55;100563.84;110341;1259;22952;-73
2023/05/28 18:01:22;;;;;;;1.90;0.30;;;;;;;18.00;35.89;100566.11;110135;1273;137543;-73
2023/05/28 18:03:50;;;;;;;1.60;0.20;;;;;;;17.94;36.23;100566.03;110265;1277;22204;-72
2023/05/28 18:06:17;;;;;;;0.90;0.20;;;;;;;17.89;36.57;100568.98;110124;1270;139762;-72
2023/05/28 18:08:47;;;;;;;1.60;0.10;;;;;;;17.82;36.96;100575.29;110139;1278;138994;-71
2023/05/28 18:11:14;;;;;;;1.70;0.30;;;;;;;17.75;37.19;100576.25;110166;1270;22375;-74
2023/05/28 18:13:41;;;;;;;0.60;0.40;;;;;;;17.67;37.31;100578.84;109987;1270;137719;-72
2023/05/28 18:16:08;;;;;;;1.10;0.70;;;;;;;17.61;37.45;100578.89;110058;1270;138172;-73
2023/05/28 18:18:36;;;;;;;4.10;0.40;;;;;;;17.52;37.60;100577.20;110172;1275;22896;-73
2023/05/28 18:21:06;;;;;;;0.70;0.50;;;;;;;17.49;37.71;100584.13;110123;1275;137730;-72
2023/05/28 18:23:35;;;;;;;1.80;0.30;;;;;;;17.44;37.94;100585.59;110200;1262;22164;-71
2023/05/28 18:26:03;;;;;;;1.00;0.20;;;;;;;17.40;38.06;100585.86;110064;1276;137672;-73
2023/05/28 18:28:30;;;;;;;5.70;0.80;;;;;;;17.36;38.03;100584.13;110033;1271;139562;-71
2023/05/28 18:30:58;;;;;;;4.20;0.20;;;;;;;17.31;38.14;100582.61;110196;1270;23026;-73
2023/05/28 18:33:27;;;;;;;3.10;0.30;;;;;;;17.27;38.23;100582.33;110212;1270;138344;-72
2023/05/28 18:35:54;;;;;;;0.80;0.30;;;;;;;17.23;38.38;100579.36;110123;1276;22290;-74
2023/05/28 18:38:22;;;;;;;1.90;0.40;;;;;;;17.18;38.43;100581.23;110131;1275;138546;-74
2023/05/28 18:40:49;;;;;;;1.00;0.50;;;;;;;17.15;38.42;100586.00;110116;1275;139452;-72
2023/05/28 18:43:16;;;;;;;1.30;0.30;;;;;;;17.12;38.60;100586.33;110220;1258;22804;-72
2023/05/28 18:45:43;;;;;;;1.00;0.20;;;;;;;17.08;38.96;100587.41;110327;1276;138090;-73
2023/05/28 18:48:11;;;;;;;3.70;0.20;;;;;;;17.03;39.23;100587.30;110088;1275;138076;-74
2023/05/28 18:50:38;;;;;;;3.00;0.60;;;;;;;16.97;39.47;100587.41;110224;1277;22108;-73
2023/05/28 18:53:08;;;;;;;2.60;0.40;;;;;;;16.91;39.56;100589.22;110072;1277;137671;-73
2023/05/28 18:55:36;;;;;;;3.50;0.30;;;;;;;16.86;39.81;100589.61;110151;1269;22872;-73
2023/05/28 18:58:04;;;;;;;4.10;0.40;;;;;;;16.79;40.00;100587.16;110138;1276;137718;-74
2023/05/28 19:00:31;;;;;;;4.40;0.90;;;;;;;16.72;40.21;100590.79;110033;1274;138036;-76
2023/05/28 19:02:59;;;;;;;4.10;0.80;;;;;;;16.67;40.26;100594.23;110182;1274;22130;-70
2023/05/28 19:05:27;;;;;;;1.70;0.40;;;;;;;16.63;40.25;100596.92;109887;1277;138620;-73
2023/05/28 19:07:55;;;;;;;6.70;0.80;;;;;;;16.61;40.32;100596.25;110266;1275;22421;-76
2023/05/28 19:10:23;;;;;;;0.70;0.30;;;;;;;16.57;40.39;100591.89;110084;1270;138725;-78
2023/05/28 19:12:50;;;;;;;1.90;0.20;;;;;;;16.54;40.48;100595.17;110089;1269;139438;-73
2023/05/28 19:15:18;;;;;;;1.50;0.40;;;;;;;16.51;40.55;100600.35;110271;1276;22220;-78
2023/05/28 19:17:45;;;;;;;2.10;0.60;;;;;;;16.46;40.75;100600.23;110069;1260;138478;-74
2023/05/28 19:20:12;;;;;;;1.90;0.50;;;;;;;16.43;40.74;100597.36;110251;1276;139264;-75
2023/05/28 19:22:40;;;;;;;3.70;0.70;;;;;;;16.40;40.79;100598.87;110490;1269;22365;-75
2023/05/28 19:25:10;;;;;;;1.70;0.60;;;;;;;16.36;40.89;100598.91;110047;1270;139002;-72
2023/05/28 19:27:39;;;;;;;3.40;0.50;;;;;;;16.32;41.06;100601.34;110167;1278;22312;-81
2023/05/28 19:30:08;;;;;;;4.80;0.50;;;;;;;16.29;41.31;100599.91;110042;1270;137742;-78
2023/05/28 19:32:37;;;;;;;3.10;0.50;;;;;;;16.24;41.29;100598.39;110030;1278;139780;-79
2023/05/28 19:35:05;;;;;;;6.20;0.70;;;;;;;16.21;41.52;100595.72;110136;1276;22908;-73
2023/05/28 19:37:33;;;;;;;4.30;0.70;;;;;;;16.15;41.61;100593.15;110119;1278;139379;-80
2023/05/28 19:40:00;;;;;;;1.40;0.50;;;;;;;16.12;41.75;100592.56;110211;1274;22431;-81
2023/05/28 19:42:28;;;;;;;3.40;0.60;;;;;;;16.09;41.62;100593.75;110200;1278;22982;-78
2023/05/28 19:44:56;;;;;;;8.10;0.60;;;;;;;16.07;41.70;100596.21;109916;1267;137936;-76
2023/05/28 19:47:24;;;;;;;1.80;1.00;;;;;;;16.04;41.76;100595.77;110136;1278;22246;-77
2023/05/28 19:49:51;;;;;;;2.10;0.50;;;;;;;16.01;41.72;100595.42;110011;1278;138972;-76
2023/05/28 19:52:18;;;;;;;3.80;0.70;;;;;;;15.98;41.88;100599.09;110093;1275;139840;-76
2023/05/28 19:54:46;;;;;;;1.70;0.70;;;;;;;15.95;41.67;100598.97;110223;1260;22417;-74
2023/05/28 19:57:15;;;;;;;3.60;0.70;;;;;;;15.93;41.72;100596.21;110076;1278;137927;-72
2023/05/28 19:59:42;;;;;;;2.20;0.40;;;;;;;15.91;41.78;100598.05;110186;1272;22993;-77
2023/05/28 20:02:09;;;;;;;3.10;0.40;;;;;;;15.88;41.87;100603.90;110064;1276;137864;-81
2023/05/28 20:04:42;;;;;;;2.20;0.50;;;;;;;15.75;41.96;100593.15;110106;1278;139721;-77
2023/05/28 20:07:09;;;;;;;1.10;0.50;;;;;;;15.77;42.17;100605.95;110180;1278;22132;-77
2023/05/28 20:09:37;;;;;;;3.60;1.20;;;;;;;15.70;42.23;100602.21;110002;1271;137724;-78
2023/05/28 20:12:05;;;;;;;2.10;1.00;;;;;;;15.64;42.13;100603.06;110097;1278;139093;-77
2023/05/28 20:14:32;;;;;;;4.80;0.30;;;;;;;15.58;42.18;100604.45;110160;1271;22326;-80
2023/05/28 20:17:01;;;;;;;0.90;0.30;;;;;;;15.50;42.30;100603.84;110135;1258;138838;-80
2023/05/28 20:19:28;;;;;;;3.90;0.90;;;;;;;15.44;42.49;100605.61;110150;1271;23122;-80
2023/05/28 20:21:56;;;;;;;4.30;0.70;;;;;;;15.38;42.72;100605.26;110111;1258;137996;-79
2023/05/28 20:24:23;;;;;;;3.80;0.60;;;;;;;15.33;42.83;100608.14;110083;1278;138115;-74
2023/05/28 20:26:50;;;;;;;4.20;1.00;;;;;;;15.28;43.18;100606.29;110097;1278;22415;-78
2023/05/28 20:29:19;;;;;;;0.80;0.60;;;;;;;15.23;43.35;100607.30;110106;1278;138935;-78
2023/05/28 20:31:47;;;;;;;1.10;0.50;;;;;;;15.19;43.45;100605.09;110089;1274;23025;-78
2023/05/28 20:34:14;;;;;;;1.30;0.50;;;;;;;15.12;43.53;100613.61;110100;1278;138154;-78
2023/05/28 20:36:42;;;;;;;2.00;0.40;;;;;;;15.09;43.71;100615.77;110048;1278;138360;-78
2023/05/28 20:39:10;;;;;;;3.00;0.40;;;;;;;15.06;43.73;100614.22;110162;1273;22180;-76
2023/05/28 20:41:40;;;;;;;1.00;0.40;;;;;;;15.02;43.72;100614.39;110004;1278;137629;-74
2023/05/28 20:44:07;;;;;;;3.20;0.50;;;;;;;15.01;43.58;100618.52;110192;1275;138972;-73
2023/05/28 20:46:34;;;;;;;1.90;0.50;;;;;;;14.99;43.52;100620.27;110038;1261;22122;-76
2023/05/28 20:49:02;;;;;;;5.20;0.40;;;;;;;14.97;43.54;100621.96;110051;1279;138906;-75
2023/05/28 20:51:31;;;;;;;1.20;0.50;;;;;;;14.95;43.38;100622.77;110133;1271;22115;-77
2023/05/28 20:54:01;;;;;;;1.80;0.40;;;;;;;14.94;43.39;100620.98;110092;1258;137763;-76
2023/05/28 20:56:29;;;;;;;2.90;0.60;;;;;;;14.92;43.68;100620.73;110067;1271;138392;-76
2023/05/28 20:58:58;;;;;;;0.70;0.60;;;;;;;14.88;43.86;100622.02;110160;1278;22312;-79
2023/05/28 21:01:25;;;;;;;3.00;0.80;;;;;;;14.83;43.71;100619.23;110136;1272;137897;-76
2023/05/28 21:03:53;;;;;;;2.60;0.60;;;;;;;14.82;43.50;100621.00;110163;1276;22341;-77
2023/05/28 21:06:20;;;;;;;1.60;0.40;;;;;;;14.81;43.84;100623.90;110130;1262;137488;-75
2023/05/28 21:08:47;;;;;;;1.40;0.80;;;;;;;14.77;43.82;100624.06;110062;1271;138604;-77
2023/05/28 21:11:15;;;;;;;2.60;0.30;;;;;;;14.75;43.32;100622.34;110189;1261;22397;-73
2023/05/28 21:13:42;;;;;;;2.20;0.40;;;;;;;14.75;42.88;100618.09;110008;1259;138632;-77
2023/05/28 21:16:09;;;;;;;1.80;0.80;;;;;;;14.75;42.54;100612.96;110096;1270;139132;-76
2023/05/28 21:18:37;;;;;;;3.00;0.40;;;;;;;14.76;42.75;100616.01;110150;1278;22361;-78
2023/05/28 21:21:06;;;;;;;2.50;0.30;;;;;;;14.76;43.13;100616.14;110060;1278;138925;-77
2023/05/28 21:23:33;;;;;;;3.20;1.30;;;;;;;14.72;43.00;100614.91;110176;1278;22235;-77
2023/05/28 21:26:00;;;;;;;2.60;0.30;;;;;;;14.68;42.66;100616.03;110078;1262;136798;-78
2023/05/28 21:28:28;;;;;;;0.80;0.30;;;;;;;14.65;42.52;100613.52;110035;1278;139701;-78
2023/05/28 21:30:55;;;;;;;3.50;0.50;;;;;;;14.63;42.67;100609.64;110121;1254;22841;-76
2023/05/28 21:33:22;;;;;;;2.70;0.30;;;;;;;14.61;42.55;100607.58;110077;1279;139432;-75
2023/05/28 21:35:50;;;;;;;1.80;0.20;;;;;;;14.52;42.73;100595.53;110066;1278;23042;-72
2023/05/28 21:38:17;;;;;;;2.00;0.60;;;;;;;14.51;42.49;100597.43;110124;1278;139143;-74
2023/05/28 21:40:44;;;;;;;1.40;0.40;;;;;;;14.58;42.72;100606.52;110053;1272;138923;-75
2023/05/28 21:43:12;;;;;;;1.20;0.50;;;;;;;14.56;42.99;100608.17;110108;1273;22236;-75
2023/05/28 21:45:39;;;;;;;2.40;0.60;;;;;;;14.53;43.07;100611.31;110033;1278;137689;-74
2023/05/28 21:48:06;;;;;;;1.00;0.50;;;;;;;14.48;43.39;100606.73;110048;1260;138340;-75